Time;durP1;ratioP1;P1;durP2;ratioP2;P2;SDS_P1;SDS_P2;PMS_P1;PMS_P2;Temp;Humidity;BMP_temperature;BMP_pressure;BME280_temperature;BME280_humidity;BME280_pressure;Samples;Min_cycle;Max_cycle;Signal;HPM_P1;HPM_P2
2023/07/07 00:00:36;;;;;;;5.60;3.15;;;;;;;19.43;52.02;100826.84;4148861;28;19973;-65
2023/07/07 00:02:39;;;;;;;7.82;3.38;;;;;;;19.44;51.97;100829.44;4164111;28;20033;-65
2023/07/07 00:04:42;;;;;;;9.88;3.63;;;;;;;19.46;52.21;100826.78;4162550;28;20045;-65
2023/07/07 00:06:45;;;;;;;9.48;3.75;;;;;;;19.48;52.13;100827.63;4163351;28;20333;-65
2023/07/07 00:08:48;;;;;;;5.07;3.20;;;;;;;19.50;52.55;100831.97;4163032;28;20052;-65
2023/07/07 00:10:52;;;;;;;6.55;3.70;;;;;;;19.45;52.63;100820.66;4158192;28;20056;-65
2023/07/07 00:12:56;;;;;;;9.38;3.58;;;;;;;19.40;52.43;100826.88;4158457;28;20037;-65
2023/07/07 00:14:59;;;;;;;9.32;3.97;;;;;;;19.38;52.81;100818.13;4161913;28;20076;-65
2023/07/07 00:17:01;;;;;;;12.13;4.15;;;;;;;19.34;53.20;100830.50;4163047;28;20045;-65
2023/07/07 00:19:09;;;;;;;6.68;3.70;;;;;;;19.30;53.19;100834.06;4162432;28;20042;-65
2023/07/07 00:21:12;;;;;;;9.13;3.80;;;;;;;19.21;53.08;100829.81;4162464;28;20696;-65
2023/07/07 00:23:15;;;;;;;10.38;3.80;;;;;;;19.13;53.28;100829.06;4178036;28;20043;-65
2023/07/07 00:25:18;;;;;;;8.60;3.95;;;;;;;19.08;53.73;100839.66;4158582;28;20484;-65
2023/07/07 00:27:21;;;;;;;8.93;3.50;;;;;;;19.07;53.56;100837.94;4159374;28;20439;-64
2023/07/07 00:29:25;;;;;;;6.38;3.78;;;;;;;19.11;53.47;100841.38;4161191;28;20129;-65
2023/07/07 00:31:29;;;;;;;;;;;;;;;19.03;53.25;100833.59;4158391;28;20049;-65
2023/07/07 00:33:32;;;;;;;7.22;3.90;;;;;;;19.08;53.05;100836.16;4158974;28;19970;-65
2023/07/07 00:35:35;;;;;;;7.68;4.07;;;;;;;19.07;53.05;100835.31;4161490;28;20038;-65
2023/07/07 00:37:38;;;;;;;8.43;3.83;;;;;;;19.05;53.56;100837.06;4162609;28;21629;-65
2023/07/07 00:39:41;;;;;;;10.27;4.28;;;;;;;19.07;53.13;100831.78;4176481;28;20039;-65
2023/07/07 00:41:44;;;;;;;10.05;4.05;;;;;;;19.04;53.32;100835.34;4159956;28;20064;-65
2023/07/07 00:44:03;;;;;;;7.65;3.30;;;;;;;19.01;53.96;100835.38;4173009;28;20494;-65
2023/07/07 00:46:09;;;;;;;6.25;3.42;;;;;;;18.94;53.57;100836.34;4160700;28;20044;-65
2023/07/07 00:48:16;;;;;;;11.23;3.80;;;;;;;18.92;53.33;100841.66;4162178;28;20037;-64
2023/07/07 00:50:22;;;;;;;7.60;3.70;;;;;;;18.90;53.45;100837.31;4140223;28;20464;-64
2023/07/07 00:52:25;;;;;;;6.20;3.83;;;;;;;18.86;53.19;100841.75;4162631;28;20033;-64
2023/07/07 00:54:33;;;;;;;7.75;3.70;;;;;;;18.88;53.44;100839.97;4158557;28;20104;-64
2023/07/07 00:56:39;;;;;;;7.57;3.88;;;;;;;18.85;54.13;100845.22;4167584;28;20033;-64
2023/07/07 00:58:43;;;;;;;9.75;3.63;;;;;;;18.81;53.75;100844.41;4150868;28;20084;-65
2023/07/07 01:00:50;;;;;;;7.57;3.55;;;;;;;18.79;54.03;100842.69;4161568;28;20033;-64
2023/07/07 01:02:57;;;;;;;8.68;4.45;;;;;;;18.75;54.35;100844.50;4165929;28;20041;-65
2023/07/07 01:05:04;;;;;;;7.20;3.47;;;;;;;18.72;54.33;100846.28;4165548;28;20511;-65
2023/07/07 01:07:16;;;;;;;9.45;3.47;;;;;;;18.71;54.13;100842.78;4165311;28;20048;-65
2023/07/07 01:09:18;;;;;;;13.15;4.35;;;;;;;18.66;54.51;100840.22;4171082;28;20099;-65
2023/07/07 01:11:21;;;;;;;7.72;3.72;;;;;;;18.62;54.59;100850.81;4166694;28;20036;-64
2023/07/07 01:13:24;;;;;;;9.30;4.40;;;;;;;18.55;54.44;100846.53;4154755;28;20408;-64
2023/07/07 01:15:31;;;;;;;8.30;4.18;;;;;;;18.53;54.22;100856.19;4166053;28;20096;-65
2023/07/07 01:17:48;;;;;;;10.25;4.68;;;;;;;18.47;54.33;100847.50;4181218;28;20052;-65
2023/07/07 01:20:18;;;;;;;7.30;3.55;;;;;;;18.46;54.89;100847.50;4163222;22;20044;-62
2023/07/07 01:22:44;;;;;;;9.27;3.70;;;;;;;18.45;54.98;100857.16;4161422;28;20064;-62
2023/07/07 01:25:04;;;;;;;8.30;3.70;;;;;;;18.42;55.08;100854.56;4146671;28;20034;-62
2023/07/07 01:27:27;;;;;;;8.38;3.67;;;;;;;18.36;55.21;100849.38;4161898;28;20053;-62
2023/07/07 01:29:52;;;;;;;10.15;4.22;;;;;;;18.34;54.97;100848.53;4158265;28;20038;-62
2023/07/07 01:32:01;;;;;;;6.72;3.78;;;;;;;18.36;54.81;100844.09;4161874;28;20033;-62
2023/07/07 01:34:04;;;;;;;9.00;4.22;;;;;;;18.39;55.28;100840.56;4161309;28;20065;-61
2023/07/07 01:36:08;;;;;;;9.05;4.40;;;;;;;18.33;55.52;100848.56;4162561;28;20037;-62
2023/07/07 01:38:30;;;;;;;9.52;4.53;;;;;;;18.30;55.60;100847.69;4161621;28;20494;-62
2023/07/07 01:40:43;;;;;;;6.30;3.60;;;;;;;18.26;55.69;100848.59;4154913;28;20103;-62
2023/07/07 01:42:51;;;;;;;10.57;4.13;;;;;;;18.28;55.09;100853.84;4161214;28;20061;-62
2023/07/07 01:45:02;;;;;;;10.30;4.22;;;;;;;18.23;55.26;100859.16;4161730;28;20092;-62
2023/07/07 01:47:13;;;;;;;12.23;3.80;;;;;;;18.16;55.06;100854.00;4144063;28;20148;-62
2023/07/07 01:49:21;;;;;;;8.50;4.13;;;;;;;18.08;54.93;100847.06;4159569;28;20129;-62
2023/07/07 01:51:34;;;;;;;8.55;3.97;;;;;;;18.08;54.64;100847.06;4158148;28;20422;-62
2023/07/07 01:53:40;;;;;;;8.02;4.10;;;;;;;18.07;55.00;100850.56;4161263;28;20478;-62
2023/07/07 01:55:48;;;;;;;11.98;4.30;;;;;;;18.10;54.77;100854.94;4159648;28;20041;-62
2023/07/07 01:57:56;;;;;;;10.18;4.47;;;;;;;18.12;54.56;100848.78;4158210;28;20423;-62
2023/07/07 01:59:59;;;;;;;7.57;3.65;;;;;;;18.11;54.54;100854.06;4161126;28;20048;-62
2023/07/07 02:02:03;;;;;;;6.78;3.65;;;;;;;18.05;54.71;100841.81;4159563;28;20033;-62
2023/07/07 02:04:07;;;;;;;6.53;3.22;;;;;;;18.07;54.81;100849.69;4160736;28;20495;-62
2023/07/07 02:06:10;;;;;;;7.85;3.50;;;;;;;18.09;54.63;100846.19;4161859;28;20045;-62
2023/07/07 02:08:13;;;;;;;10.70;3.95;;;;;;;18.10;55.01;100842.63;4163199;28;20057;-62
2023/07/07 02:10:16;;;;;;;7.15;3.72;;;;;;;18.05;55.48;100851.50;4159347;28;20543;-62
2023/07/07 02:12:19;;;;;;;7.47;3.35;;;;;;;17.96;55.16;100847.19;4160257;28;20140;-62
2023/07/07 02:14:21;;;;;;;6.80;4.45;;;;;;;17.89;55.31;100858.63;4160315;28;20038;-62
2023/07/07 02:16:24;;;;;;;10.35;4.18;;;;;;;17.85;55.14;100855.13;4159477;28;20518;-62
2023/07/07 02:18:27;;;;;;;8.43;3.72;;;;;;;17.83;55.24;100858.66;4160421;28;20061;-62
2023/07/07 02:20:32;;;;;;;9.95;4.22;;;;;;;17.79;55.05;100850.81;4161947;28;20038;-62
2023/07/07 02:22:37;;;;;;;6.45;3.17;;;;;;;17.77;54.78;100847.34;4158613;28;20506;-62
2023/07/07 02:24:40;;;;;;;7.43;3.92;;;;;;;17.73;54.78;100850.88;4159035;28;20049;-61
2023/07/07 02:26:42;;;;;;;9.07;4.30;;;;;;;17.76;54.36;100852.59;4159958;28;20129;-62
2023/07/07 02:28:46;;;;;;;10.13;3.83;;;;;;;17.74;53.99;100852.63;4160407;28;20033;-62
2023/07/07 02:30:49;;;;;;;11.15;4.22;;;;;;;17.73;53.73;100852.63;4160015;28;20486;-62
2023/07/07 02:32:52;;;;;;;6.45;3.40;;;;;;;17.69;53.86;100851.78;4159649;28;20044;-62
2023/07/07 02:34:55;;;;;;;8.38;3.83;;;;;;;17.67;53.87;100856.19;4158758;28;20053;-62
2023/07/07 02:36:59;;;;;;;9.98;3.75;;;;;;;17.66;53.73;100854.44;4159918;28;20561;-62
2023/07/07 02:39:02;;;;;;;9.15;3.85;;;;;;;17.64;53.36;100853.59;4160184;28;20490;-62
2023/07/07 02:41:06;;;;;;;6.95;3.22;;;;;;;17.66;53.37;100859.69;4160803;28;20041;-62
2023/07/07 02:43:09;;;;;;;8.48;4.05;;;;;;;17.69;53.34;100862.28;4159547;28;20527;-62
2023/07/07 02:45:14;;;;;;;10.70;4.03;;;;;;;17.67;53.34;100865.81;4156684;28;20048;-62
2023/07/07 02:47:17;;;;;;;8.15;3.50;;;;;;;17.67;53.20;100860.56;4161176;28;20159;-62
2023/07/07 02:49:20;;;;;;;7.68;3.95;;;;;;;17.66;53.30;100867.59;4159638;28;21590;-62
2023/07/07 02:51:23;;;;;;;9.30;3.90;;;;;;;17.66;53.24;100864.09;4162783;28;20120;-62
2023/07/07 02:53:29;;;;;;;7.65;3.95;;;;;;;17.67;53.34;100865.81;4161622;28;20084;-63
2023/07/07 02:55:32;;;;;;;8.90;3.40;;;;;;;17.60;53.20;100865.88;4160952;28;20046;-62
2023/07/07 02:57:35;;;;;;;12.40;4.18;;;;;;;17.63;53.45;100867.63;4164561;28;20048;-62
2023/07/07 02:59:38;;;;;;;7.65;3.17;;;;;;;17.56;53.43;100864.16;4163888;28;20053;-62
2023/07/07 03:01:43;;;;;;;6.30;3.15;;;;;;;17.54;53.95;100867.69;4164286;28;20052;-62
2023/07/07 03:03:49;;;;;;;7.30;3.20;;;;;;;17.58;54.12;100859.78;4163532;28;20045;-62
2023/07/07 03:05:52;;;;;;;7.68;3.22;;;;;;;17.62;53.98;100863.22;4164098;28;20047;-62
2023/07/07 03:07:55;;;;;;;8.60;3.40;;;;;;;17.58;54.28;100865.03;4147718;28;20046;-62
2023/07/07 03:10:01;;;;;;;6.00;3.05;;;;;;;17.56;53.82;100864.16;4164097;28;20041;-62
2023/07/07 03:12:07;;;;;;;9.75;3.38;;;;;;;17.57;53.67;100870.31;4163811;28;20047;-62
2023/07/07 03:14:10;;;;;;;8.57;3.05;;;;;;;17.58;53.69;100875.53;4162506;28;20037;-62
2023/07/07 03:16:20;;;;;;;6.78;3.33;;;;;;;17.56;53.35;100868.53;4163784;28;20041;-62
2023/07/07 03:18:28;;;;;;;5.78;2.95;;;;;;;17.54;53.30;100868.56;4164015;28;20463;-62
2023/07/07 03:20:35;;;;;;;10.27;3.70;;;;;;;17.53;53.16;100869.44;4163874;28;20042;-62
2023/07/07 03:22:43;;;;;;;5.55;3.17;;;;;;;17.53;53.18;100868.56;4163743;28;20041;-62
2023/07/07 03:24:51;;;;;;;10.80;3.35;;;;;;;17.54;53.17;100870.31;4163360;28;20049;-62
2023/07/07 03:27:12;;;;;;;8.57;3.08;;;;;;;17.55;53.45;100872.94;4163722;28;20438;-62
2023/07/07 03:29:17;;;;;;;7.40;3.30;;;;;;;17.54;53.23;100871.19;4163477;28;20045;-62
2023/07/07 03:31:23;;;;;;;6.82;3.28;;;;;;;17.56;53.36;100877.28;4162786;28;20465;-61
2023/07/07 03:33:30;;;;;;;5.65;3.35;;;;;;;17.55;52.98;100872.94;4159651;28;20037;-62
2023/07/07 03:35:33;;;;;;;5.93;3.10;;;;;;;17.54;53.16;100880.84;4159532;28;20045;-62
2023/07/07 03:37:37;;;;;;;7.97;2.95;;;;;;;17.58;53.20;100872.03;4159534;28;20064;-62
2023/07/07 03:39:40;;;;;;;11.02;3.53;;;;;;;17.65;53.24;100876.34;4159852;28;20071;-62
2023/07/07 03:41:43;;;;;;;7.60;3.10;;;;;;;17.69;53.41;100869.31;4159837;28;20045;-62
2023/07/07 03:43:47;;;;;;;5.30;2.75;;;;;;;17.64;53.15;100866.72;4158703;28;20052;-62
2023/07/07 03:45:54;;;;;;;5.35;3.05;;;;;;;17.59;53.28;100884.28;4157753;28;20123;-62
2023/07/07 03:47:57;;;;;;;6.80;3.28;;;;;;;17.57;53.33;100889.56;4158062;28;20124;-62
2023/07/07 03:50:00;;;;;;;5.15;2.90;;;;;;;17.58;53.07;100879.91;4156020;28;20600;-63
2023/07/07 03:52:08;;;;;;;5.90;3.00;;;;;;;17.58;53.24;100882.53;4160640;28;20509;-63
2023/07/07 03:54:11;;;;;;;9.02;3.65;;;;;;;17.57;53.01;100883.44;4150015;28;20446;-64
2023/07/07 03:56:14;;;;;;;4.45;2.75;;;;;;;17.73;53.89;100886.81;4158751;28;20406;-64
2023/07/07 03:58:17;;;;;;;7.00;2.92;;;;;;;18.07;53.44;100884.75;4159448;28;20041;-64
2023/07/07 04:00:22;;;;;;;4.80;2.90;;;;;;;18.39;52.16;100888.81;4159665;28;20620;-63
2023/07/07 04:02:25;;;;;;;7.00;2.65;;;;;;;18.56;51.59;100882.47;4160202;28;20038;-63
2023/07/07 04:04:28;;;;;;;11.18;3.08;;;;;;;18.68;50.90;100874.44;4161123;28;20045;-63
2023/07/07 04:06:33;;;;;;;7.30;2.95;;;;;;;18.79;50.67;100883.09;4153155;28;20053;-63
2023/07/07 04:08:36;;;;;;;10.73;3.28;;;;;;;18.96;50.68;100879.38;4158415;28;20049;-63
2023/07/07 04:10:40;;;;;;;5.88;2.60;;;;;;;19.00;50.44;100881.09;4155897;28;20045;-63
2023/07/07 04:12:43;;;;;;;5.13;2.60;;;;;;;19.11;50.18;100887.03;4162015;28;20064;-63
2023/07/07 04:14:47;;;;;;;8.23;3.42;;;;;;;19.17;49.59;100889.63;4145911;28;20292;-63
2023/07/07 04:16:52;;;;;;;7.60;3.05;;;;;;;19.05;49.59;100892.41;4139046;28;20100;-63
2023/07/07 04:18:56;;;;;;;5.25;2.58;;;;;;;19.01;49.78;100895.97;4159902;28;20029;-63
2023/07/07 04:21:00;;;;;;;10.52;3.30;;;;;;;19.08;49.84;100902.91;4146313;28;20100;-63
2023/07/07 04:23:03;;;;;;;9.32;3.05;;;;;;;19.22;49.62;100894.81;4158446;28;20083;-63
2023/07/07 04:25:11;;;;;;;6.57;3.10;;;;;;;19.22;49.44;100893.97;4156297;28;20045;-63
2023/07/07 04:27:14;;;;;;;4.95;2.92;;;;;;;19.12;49.62;100888.81;4154496;28;20049;-63
2023/07/07 04:29:17;;;;;;;8.07;2.80;;;;;;;19.17;49.75;100886.09;4158148;28;20532;-64
2023/07/07 04:31:23;;;;;;;5.80;3.20;;;;;;;19.15;49.51;100894.03;4159811;28;20033;-63
2023/07/07 04:33:28;;;;;;;12.63;3.70;;;;;;;19.22;49.42;100896.59;4162328;28;20079;-64
2023/07/07 04:35:36;;;;;;;10.43;3.67;;;;;;;19.20;49.04;100896.59;4161489;28;20049;-63
2023/07/07 04:37:38;;;;;;;6.03;2.83;;;;;;;19.17;49.81;100896.63;4163720;28;20049;-63
2023/07/07 04:39:41;;;;;;;8.95;3.20;;;;;;;19.22;49.37;100893.97;4154600;28;20060;-63
2023/07/07 04:41:44;;;;;;;9.73;3.88;;;;;;;19.27;49.41;100890.34;4162283;28;20041;-63
2023/07/07 04:43:50;;;;;;;10.02;3.30;;;;;;;19.22;48.80;100886.91;4160903;28;20033;-64
2023/07/07 04:45:53;;;;;;;13.95;3.83;;;;;;;19.22;48.45;100889.53;4159797;28;20103;-64
2023/07/07 04:47:56;;;;;;;9.38;3.80;;;;;;;19.13;48.94;100898.47;4159036;28;20495;-64
2023/07/07 04:50:00;;;;;;;12.93;3.55;;;;;;;19.11;48.47;100894.97;4157030;28;20045;-64
2023/07/07 04:52:04;;;;;;;10.68;3.33;;;;;;;18.99;49.14;100900.41;4153195;28;20128;-64
2023/07/07 04:54:10;;;;;;;9.02;3.85;;;;;;;19.08;48.74;100899.41;4160858;28;20037;-64
2023/07/07 04:56:16;;;;;;;11.10;3.83;;;;;;;19.06;49.03;100895.94;4160801;28;20099;-64
2023/07/07 04:58:19;;;;;;;15.10;4.60;;;;;;;19.07;49.07;100895.91;4163316;28;20038;-64
2023/07/07 05:00:22;;;;;;;10.65;3.63;;;;;;;19.10;48.96;100898.50;4139972;28;20128;-64
2023/07/07 05:02:26;;;;;;;9.23;3.55;;;;;;;19.14;48.79;100899.31;4162592;28;20492;-64
2023/07/07 05:04:29;;;;;;;9.80;3.63;;;;;;;19.18;48.60;100899.25;4157789;28;20041;-64
2023/07/07 05:06:36;;;;;;;7.20;3.33;;;;;;;19.16;48.28;100908.09;4161431;28;20045;-64
2023/07/07 05:08:40;;;;;;;10.68;3.58;;;;;;;19.15;48.06;100912.47;4161606;28;20128;-64
2023/07/07 05:10:47;;;;;;;13.07;3.72;;;;;;;19.17;48.01;100905.44;4159131;28;20115;-65
2023/07/07 05:12:50;;;;;;;13.60;3.53;;;;;;;19.16;47.73;100901.03;4157385;28;20041;-64
2023/07/07 05:14:53;;;;;;;13.43;3.72;;;;;;;19.06;48.33;100902.06;4159794;28;20767;-65
2023/07/07 05:16:57;;;;;;;16.63;3.45;;;;;;;19.14;48.15;100904.59;4162471;28;20049;-65
2023/07/07 05:19:01;;;;;;;8.98;3.53;;;;;;;19.25;48.00;100905.31;4163457;28;20526;-64
2023/07/07 05:21:05;;;;;;;6.65;2.67;;;;;;;19.27;48.19;100900.88;4163581;28;20554;-63
2023/07/07 05:23:10;;;;;;;7.95;2.92;;;;;;;19.39;47.33;100899.84;4162278;28;20034;-63
2023/07/07 05:25:13;;;;;;;5.25;2.90;;;;;;;19.39;48.11;100910.41;4162475;28;20088;-64
2023/07/07 05:27:16;;;;;;;6.25;2.55;;;;;;;19.57;48.02;100913.66;4149484;28;20065;-64
2023/07/07 05:29:20;;;;;;;5.68;2.58;;;;;;;19.68;47.55;100912.56;4156476;28;20068;-63
2023/07/07 05:31:22;;;;;;;6.90;2.83;;;;;;;19.83;47.56;100911.47;4161434;28;20042;-64
2023/07/07 05:33:26;;;;;;;13.60;3.67;;;;;;;19.95;46.56;100920.09;4162035;28;20096;-63
2023/07/07 05:35:29;;;;;;;15.68;3.72;;;;;;;19.90;46.52;100920.13;4161432;28;20040;-64
2023/07/07 05:37:32;;;;;;;18.00;4.15;;;;;;;19.97;46.33;100923.56;4163634;28;20041;-64
2023/07/07 05:39:37;;;;;;;14.48;3.80;;;;;;;19.90;46.38;100921.91;4163329;28;20412;-63
2023/07/07 05:41:39;;;;;;;10.75;3.40;;;;;;;19.97;46.15;100923.56;4143673;28;20122;-63
2023/07/07 05:43:42;;;;;;;10.18;3.38;;;;;;;19.87;46.46;100920.19;4176711;28;20127;-64
2023/07/07 05:45:45;;;;;;;9.43;3.15;;;;;;;19.80;46.72;100922.09;4154374;28;20052;-63
2023/07/07 05:47:48;;;;;;;14.20;3.35;;;;;;;19.83;47.06;100919.38;4162160;28;20068;-64
2023/07/07 05:49:53;;;;;;;12.55;3.20;;;;;;;19.92;46.90;100920.09;4159012;28;20091;-64
2023/07/07 05:51:56;;;;;;;19.70;5.18;;;;;;;20.04;46.09;100923.41;4159938;28;20042;-64
2023/07/07 05:53:59;;;;;;;11.50;3.83;;;;;;;20.14;45.10;100923.28;4163541;28;20515;-64
2023/07/07 05:56:08;;;;;;;14.00;3.33;;;;;;;20.12;45.14;100928.56;4156721;28;20044;-64
2023/07/07 05:58:11;;;;;;;14.93;4.60;;;;;;;20.14;45.69;100925.91;4159521;28;20033;-64
2023/07/07 06:00:16;;;;;;;9.40;3.85;;;;;;;20.10;45.65;100917.16;4160333;28;20049;-64
2023/07/07 06:02:19;;;;;;;20.00;4.80;;;;;;;20.24;45.41;100919.56;4160782;28;20458;-64
2023/07/07 06:04:22;;;;;;;15.65;4.05;;;;;;;20.12;46.05;100918.03;4162512;28;20064;-64
2023/07/07 06:06:25;;;;;;;15.13;3.85;;;;;;;20.25;46.05;100916.00;4161611;28;20068;-64
2023/07/07 06:08:28;;;;;;;19.80;3.97;;;;;;;20.37;45.58;100913.16;4164065;28;20045;-64
2023/07/07 06:10:31;;;;;;;23.35;4.55;;;;;;;20.40;45.41;100917.50;4145587;28;20064;-64
2023/07/07 06:12:35;;;;;;;21.73;5.07;;;;;;;20.38;45.66;100908.72;4162639;28;20061;-64
2023/07/07 06:14:38;;;;;;;13.50;4.60;;;;;;;20.43;45.72;100906.00;4156970;28;20042;-64
2023/07/07 06:16:41;;;;;;;14.18;3.88;;;;;;;20.52;45.47;100906.69;4162043;28;20041;-64
2023/07/07 06:18:44;;;;;;;8.85;3.13;;;;;;;20.61;45.61;100910.06;4155797;28;20037;-64
2023/07/07 06:20:47;;;;;;;11.52;3.95;;;;;;;20.79;45.37;100911.47;4155577;28;20132;-64
2023/07/07 06:22:53;;;;;;;17.73;4.80;;;;;;;20.92;45.21;100908.56;4163369;28;20057;-64
2023/07/07 06:24:56;;;;;;;16.25;3.95;;;;;;;21.03;44.45;100908.31;4145807;28;20129;-64
2023/07/07 06:26:59;;;;;;;9.98;3.75;;;;;;;21.14;43.98;100913.34;4160145;28;20050;-65
2023/07/07 06:29:03;;;;;;;13.57;4.43;;;;;;;21.22;44.02;100918.47;4159363;28;20507;-65
2023/07/07 06:31:06;;;;;;;9.20;3.63;;;;;;;21.14;44.18;100915.13;4160409;28;20033;-64
2023/07/07 06:33:09;;;;;;;7.40;3.03;;;;;;;21.12;44.27;100909.88;4144816;28;20112;-64
2023/07/07 06:35:12;;;;;;;6.88;3.22;;;;;;;21.24;43.61;100921.94;4163804;28;20068;-64
2023/07/07 06:37:16;;;;;;;6.20;3.10;;;;;;;21.30;43.90;100913.00;4163919;28;20056;-64
2023/07/07 06:39:19;;;;;;;21.77;4.68;;;;;;;21.48;42.95;100916.97;4164000;28;20048;-64
2023/07/07 06:41:22;;;;;;;15.02;4.80;;;;;;;21.56;42.96;100909.78;4164518;28;20045;-64
2023/07/07 06:43:25;;;;;;;16.08;4.43;;;;;;;21.55;43.03;100916.84;4163166;28;20060;-64
2023/07/07 06:45:31;;;;;;;9.95;3.85;;;;;;;21.57;43.05;100916.81;4162367;28;20045;-64
2023/07/07 06:47:34;;;;;;;13.15;4.88;;;;;;;21.62;42.83;100922.84;4159024;28;20041;-63
2023/07/07 06:49:37;;;;;;;14.35;3.92;;;;;;;21.74;42.21;100922.56;4161692;28;20052;-63
2023/07/07 06:51:40;;;;;;;11.52;4.13;;;;;;;21.74;42.77;100925.22;4157379;28;20111;-64
2023/07/07 06:53:43;;;;;;;7.50;4.43;;;;;;;21.73;42.68;100931.41;4157683;28;20045;-64
2023/07/07 06:55:46;;;;;;;10.30;3.13;;;;;;;21.75;42.99;100918.97;4154880;28;20286;-63
2023/07/07 06:57:49;;;;;;;7.05;3.70;;;;;;;21.93;42.37;100925.63;4155307;28;20119;-64
2023/07/07 06:59:52;;;;;;;7.10;3.40;;;;;;;22.00;42.20;100928.09;4157506;28;20049;-64
2023/07/07 07:01:56;;;;;;;7.60;3.45;;;;;;;22.08;41.87;100934.06;4153351;28;20060;-64
2023/07/07 07:04:00;;;;;;;7.65;3.60;;;;;;;22.14;41.93;100928.59;4155496;28;20037;-64
2023/07/07 07:06:04;;;;;;;9.90;3.60;;;;;;;22.29;41.95;100930.81;4155936;28;20038;-64
2023/07/07 07:08:07;;;;;;;12.88;3.65;;;;;;;22.30;42.15;100929.94;4152686;28;20042;-63
2023/07/07 07:10:10;;;;;;;9.10;3.47;;;;;;;22.43;41.69;100921.69;4164112;28;20394;-63
2023/07/07 07:12:13;;;;;;;6.30;3.95;;;;;;;22.47;41.37;100923.31;4157406;28;20067;-63
2023/07/07 07:14:16;;;;;;;12.85;3.47;;;;;;;22.59;40.58;100925.66;4152083;28;20069;-64
2023/07/07 07:16:45;;;;;;;5.57;3.17;;;;;;;22.51;41.70;100924.13;4153909;28;20033;-63
2023/07/07 07:18:48;;;;;;;8.93;3.15;;;;;;;22.57;41.89;100926.59;4158085;28;20044;-63
2023/07/07 07:20:53;;;;;;;8.63;3.47;;;;;;;22.74;40.55;100931.41;4153263;28;20076;-64
2023/07/07 07:22:56;;;;;;;13.38;3.38;;;;;;;22.83;40.31;100931.16;4155957;28;20041;-64
2023/07/07 07:24:59;;;;;;;8.88;3.78;;;;;;;22.96;39.31;100931.66;4157276;28;20132;-63
2023/07/07 07:27:02;;;;;;;9.65;3.42;;;;;;;22.83;39.47;100926.69;4155200;28;20054;-64
2023/07/07 07:29:05;;;;;;;10.75;2.88;;;;;;;22.70;39.84;100925.31;4156220;28;20061;-63
2023/07/07 07:31:08;;;;;;;11.40;3.65;;;;;;;22.86;39.61;100924.88;4159363;28;20064;-63
2023/07/07 07:33:14;;;;;;;5.47;2.65;;;;;;;22.97;39.36;100914.84;4159238;28;20049;-63
2023/07/07 07:35:18;;;;;;;9.63;2.78;;;;;;;22.98;38.72;100919.22;4158348;28;20057;-64
2023/07/07 07:37:21;;;;;;;;;;;;;;;23.07;38.94;100923.38;4153769;28;20069;-63
2023/07/07 07:39:24;;;;;;;9.02;3.60;;;;;;;23.17;38.53;100919.53;4158150;28;19928;-64
2023/07/07 07:41:27;;;;;;;5.40;2.28;;;;;;;23.13;39.00;100924.09;4158133;28;20265;-64
2023/07/07 07:43:30;;;;;;;8.32;3.00;;;;;;;23.29;38.96;100923.59;4155979;28;20044;-64
2023/07/07 07:45:33;;;;;;;11.85;3.22;;;;;;;23.29;38.49;100923.59;4152943;28;20030;-63
2023/07/07 07:47:36;;;;;;;5.82;2.55;;;;;;;23.37;38.76;100920.72;4153639;28;20131;-64
2023/07/07 07:49:39;;;;;;;7.18;2.97;;;;;;;23.43;39.36;100923.16;4155628;28;20046;-64
2023/07/07 07:51:44;;;;;;;4.13;2.38;;;;;;;23.52;39.48;100922.88;4155243;28;20046;-64
2023/07/07 07:53:47;;;;;;;9.00;2.65;;;;;;;23.64;39.33;100921.59;4158417;28;20057;-64
2023/07/07 07:55:50;;;;;;;6.03;2.97;;;;;;;23.74;39.03;100927.47;4159190;28;20491;-64
2023/07/07 07:57:53;;;;;;;6.97;2.58;;;;;;;23.83;38.53;100921.84;4157581;28;20078;-64
2023/07/07 07:59:56;;;;;;;6.47;2.78;;;;;;;23.94;38.07;100919.75;4158840;28;20046;-64
2023/07/07 08:01:59;;;;;;;11.98;3.75;;;;;;;24.08;36.90;100926.34;4159408;28;20057;-64
2023/07/07 08:04:03;;;;;;;7.35;3.03;;;;;;;24.09;36.57;100921.00;4157115;28;20042;-64
2023/07/07 08:06:06;;;;;;;8.07;2.97;;;;;;;24.09;36.88;100922.78;4157370;28;20041;-64
2023/07/07 08:08:10;;;;;;;13.27;3.38;;;;;;;24.16;36.57;100921.66;4154969;28;20124;-64
2023/07/07 08:10:13;;;;;;;;;;;;;;;24.16;37.14;100922.50;4154741;28;20466;-64
2023/07/07 08:12:16;;;;;;;3.55;2.22;;;;;;;24.27;37.10;100919.50;4174119;28;19925;-64
2023/07/07 08:14:21;;;;;;;10.63;3.90;;;;;;;24.43;36.37;100917.16;4153172;28;20088;-64
2023/07/07 08:16:24;;;;;;;9.02;2.88;;;;;;;24.49;36.92;100921.38;4155840;28;20687;-64
2023/07/07 08:18:27;;;;;;;8.65;3.33;;;;;;;24.47;36.54;100912.59;4154563;28;20052;-65
2023/07/07 08:20:30;;;;;;;5.97;2.85;;;;;;;24.50;36.77;100923.97;4157651;28;20129;-64
2023/07/07 08:22:33;;;;;;;6.47;2.87;;;;;;;24.59;37.21;100920.16;4155882;28;20034;-64
2023/07/07 08:24:40;;;;;;;9.82;3.72;;;;;;;24.70;37.40;100925.91;4154074;28;20128;-64
2023/07/07 08:26:43;;;;;;;7.35;3.55;;;;;;;24.79;36.79;100927.38;4153831;28;20036;-64
2023/07/07 08:28:46;;;;;;;6.53;3.20;;;;;;;24.89;36.74;100927.88;4153713;28;20045;-64
2023/07/07 08:30:53;;;;;;;7.75;3.58;;;;;;;24.92;35.96;100922.44;4152533;28;20072;-64
2023/07/07 08:32:56;;;;;;;5.65;2.97;;;;;;;24.91;36.67;100907.41;4157450;28;20033;-64
2023/07/07 08:35:00;;;;;;;6.03;2.83;;;;;;;24.91;36.03;100918.03;4156536;28;20041;-66
2023/07/07 08:37:03;;;;;;;9.75;3.45;;;;;;;24.79;35.83;100926.50;4157879;28;20034;-65
2023/07/07 08:39:12;;;;;;;6.75;3.72;;;;;;;24.94;35.16;100922.38;4160129;28;20076;-65
2023/07/07 08:41:17;;;;;;;10.60;3.33;;;;;;;24.92;35.06;100927.78;4159926;28;20045;-64
2023/07/07 08:43:20;;;;;;;;;;;;;;;25.12;35.02;100923.50;4158097;28;20041;-65
2023/07/07 08:45:24;;;;;;;10.63;3.67;;;;;;;25.11;35.15;100914.63;4155429;28;19951;-64
2023/07/07 08:47:52;;;;;;;9.25;2.97;;;;;;;25.25;35.10;100924.72;4155295;28;20577;-65
2023/07/07 08:50:14;;;;;;;7.90;3.28;;;;;;;25.20;35.94;100914.28;4157247;28;20065;-65
2023/07/07 08:52:38;;;;;;;11.48;3.42;;;;;;;25.42;35.38;100919.63;4135173;28;20038;-65
2023/07/07 08:54:51;;;;;;;10.15;3.90;;;;;;;25.55;34.59;100914.69;4155109;28;20038;-65
2023/07/07 08:57:06;;;;;;;7.00;3.28;;;;;;;25.56;35.15;100907.56;4158219;28;20047;-65
2023/07/07 08:59:37;;;;;;;8.00;3.45;;;;;;;25.72;34.75;100910.44;4156099;28;20039;-65
2023/07/07 09:01:50;;;;;;;6.28;3.20;;;;;;;25.75;34.58;100913.81;4133699;28;20041;-64
2023/07/07 09:04:11;;;;;;;12.57;3.88;;;;;;;25.87;33.28;100906.25;4157953;28;20124;-64
2023/07/07 09:06:26;;;;;;;12.30;4.13;;;;;;;25.91;33.53;100902.53;4159114;28;20391;-64
2023/07/07 09:08:38;;;;;;;8.73;3.33;;;;;;;25.80;33.94;100905.63;4150014;28;20049;-64
2023/07/07 09:11:01;;;;;;;12.77;4.13;;;;;;;26.06;33.32;100904.56;4156429;28;20111;-64
2023/07/07 09:13:23;;;;;;;9.93;4.57;;;;;;;26.05;33.50;100904.63;4155489;28;20026;-64
2023/07/07 09:15:30;;;;;;;8.77;3.78;;;;;;;26.15;34.10;100910.44;4171485;28;20042;-64
2023/07/07 09:17:38;;;;;;;10.40;2.90;;;;;;;26.26;33.80;100908.16;4154435;28;20629;-64
2023/07/07 09:19:45;;;;;;;13.10;6.55;;;;;;;26.29;33.47;100906.22;4159210;28;20029;-65
2023/07/07 09:21:54;;;;;;;10.10;4.07;;;;;;;26.38;33.66;100907.59;4156772;28;20061;-64
2023/07/07 09:24:04;;;;;;;8.32;3.50;;;;;;;26.53;33.53;100899.84;4156697;28;20129;-64
2023/07/07 09:26:12;;;;;;;11.20;4.13;;;;;;;26.71;32.78;100899.03;4151857;28;20641;-64
2023/07/07 09:28:22;;;;;;;6.43;2.58;;;;;;;26.69;33.15;100890.22;4156009;28;20170;-65
2023/07/07 09:30:57;;;;;;;7.78;3.60;;;;;;;26.73;34.20;100896.31;4139766;28;20046;-63
2023/07/07 09:33:01;;;;;;;8.80;3.25;;;;;;;26.83;33.80;100897.59;4159395;28;20547;-64
2023/07/07 09:35:10;;;;;;;9.00;3.33;;;;;;;26.95;33.91;100890.81;4155754;28;20130;-64
2023/07/07 09:37:23;;;;;;;8.93;3.13;;;;;;;27.00;33.16;100884.31;4163352;28;20034;-64
2023/07/07 09:39:52;;;;;;;4.80;2.88;;;;;;;27.03;33.45;100888.66;4159780;28;20543;-64
2023/07/07 09:42:07;;;;;;;8.43;3.20;;;;;;;27.21;33.86;100881.56;4161571;28;20140;-66
2023/07/07 09:44:25;;;;;;;5.57;2.80;;;;;;;27.23;33.01;100886.81;4179416;28;20037;-65